createdAt,value
2023-01-18T00:01:42.256Z,6.43
2023-01-18T00:04:09.412Z,11.50
2023-01-18T00:06:36.788Z,17.55
2023-01-18T00:09:10.093Z,12.88
2023-01-18T00:11:37.358Z,13.98
2023-01-18T00:14:11.106Z,6.20
2023-01-18T00:16:58.154Z,14.18
2023-01-18T00:19:32.067Z,16.65
2023-01-18T00:22:06.225Z,12.18
2023-01-18T00:24:40.102Z,5.20
2023-01-18T00:27:16.379Z,8.20
2023-01-18T00:29:43.479Z,13.73
2023-01-18T00:32:10.795Z,14.55
2023-01-18T00:34:44.151Z,14.80
2023-01-18T00:37:11.316Z,13.90
2023-01-18T00:39:47.388Z,10.45
2023-01-18T00:42:33.101Z,9.77
2023-01-18T00:45:07.212Z,14.68
2023-01-18T00:47:34.473Z,16.85
2023-01-18T00:50:01.662Z,12.35
2023-01-18T00:52:35.318Z,15.55
2023-01-18T00:55:03.941Z,13.68
2023-01-18T00:57:31.316Z,16.95
2023-01-18T01:00:05.275Z,15.27
2023-01-18T01:02:32.609Z,20.17
2023-01-18T01:05:25.295Z,14.65
2023-01-18T01:07:52.443Z,15.43
2023-01-18T01:10:19.559Z,15.38
2023-01-18T01:13:12.171Z,14.77
2023-01-18T01:16:04.218Z,9.27
2023-01-18T01:18:56.950Z,14.25
2023-01-18T01:21:49.107Z,14.00
2023-01-18T01:24:35.128Z,18.05
2023-01-18T01:27:09.099Z,16.85
2023-01-18T01:29:36.479Z,21.63
2023-01-18T01:32:10.346Z,24.95
2023-01-18T01:34:37.561Z,17.42
2023-01-18T01:37:05.100Z,16.25
2023-01-18T01:39:39.402Z,17.10
2023-01-18T01:42:06.652Z,10.15
2023-01-18T01:44:34.556Z,13.82
2023-01-18T01:47:19.165Z,15.38
2023-01-18T01:49:48.004Z,12.70
2023-01-18T01:52:29.472Z,18.23
2023-01-18T01:55:01.557Z,19.33
2023-01-18T01:57:40.309Z,14.95
2023-01-18T02:00:08.789Z,21.90
2023-01-18T02:02:36.253Z,22.90
2023-01-18T02:07:37.652Z,19.70
2023-01-18T02:10:13.421Z,16.08
2023-01-18T02:12:41.516Z,13.18
2023-01-18T02:15:09.196Z,16.10
2023-01-18T02:17:49.273Z,14.23
2023-01-18T02:20:42.204Z,12.55
2023-01-18T02:23:35.159Z,14.85
2023-01-18T02:26:18.408Z,25.98
2023-01-18T02:29:03.183Z,32.42
2023-01-18T02:31:35.032Z,18.50
2023-01-18T02:34:14.181Z,17.58
2023-01-18T02:36:47.267Z,11.85
2023-01-18T02:39:30.255Z,11.23
2023-01-18T02:42:17.404Z,17.15
2023-01-18T02:45:11.247Z,10.50
2023-01-18T02:47:38.778Z,18.00
2023-01-18T02:52:41.545Z,14.13
2023-01-18T02:55:23.207Z,19.30
2023-01-18T02:57:50.407Z,13.48
2023-01-18T03:00:25.270Z,23.80
2023-01-18T03:02:53.521Z,8.60
2023-01-18T03:05:22.032Z,18.70
2023-01-18T03:08:00.257Z,14.85
2023-01-18T03:13:07.185Z,14.15
2023-01-18T03:15:37.306Z,10.57
2023-01-18T03:18:20.243Z,13.90
2023-01-18T03:20:49.971Z,13.27
2023-01-18T03:23:44.253Z,18.35
2023-01-18T03:26:14.596Z,13.30
2023-01-18T03:29:12.290Z,14.93
2023-01-18T03:32:04.075Z,10.60
2023-01-18T03:34:40.269Z,10.90
2023-01-18T03:37:10.737Z,11.57
2023-01-18T03:39:47.275Z,18.77
2023-01-18T03:42:19.547Z,10.90
2023-01-18T03:45:03.197Z,18.17
2023-01-18T03:47:30.864Z,13.15
2023-01-18T03:50:05.241Z,10.48
2023-01-18T03:52:39.714Z,7.60
2023-01-18T03:55:19.205Z,11.57
2023-01-18T03:57:58.573Z,12.57
2023-01-18T04:00:33.305Z,14.90
2023-01-18T04:03:01.174Z,9.35
2023-01-18T04:05:28.654Z,11.35
2023-01-18T04:08:02.204Z,14.75
2023-01-18T04:10:29.518Z,19.10
2023-01-18T04:13:04.434Z,13.35
2023-01-18T04:15:31.579Z,9.00
2023-01-18T04:18:12.282Z,9.18
2023-01-18T04:20:39.499Z,11.43
2023-01-18T04:23:06.656Z,13.93
2023-01-18T04:25:40.200Z,20.73
2023-01-18T04:28:07.545Z,7.82
2023-01-18T04:30:41.320Z,13.30
2023-01-18T04:33:08.490Z,13.48
2023-01-18T04:35:36.312Z,15.35
2023-01-18T04:38:10.348Z,19.92
2023-01-18T04:40:37.513Z,11.88
2023-01-18T04:43:11.322Z,12.13
2023-01-18T04:45:38.729Z,15.05
2023-01-18T04:48:06.099Z,12.07
2023-01-18T04:50:40.216Z,14.52
2023-01-18T04:53:07.539Z,15.70
2023-01-18T04:55:41.458Z,13.27
2023-01-18T04:58:08.594Z,7.95
2023-01-18T05:00:35.721Z,9.10
2023-01-18T05:03:09.310Z,3.72
2023-01-18T05:05:36.468Z,43.60
2023-01-18T05:08:10.418Z,18.25
2023-01-18T05:10:37.661Z,8.18
2023-01-18T05:13:04.843Z,23.60
2023-01-18T05:15:41.220Z,10.75
2023-01-18T05:18:28.152Z,7.85
2023-01-18T05:21:02.308Z,17.08
2023-01-18T05:23:29.572Z,10.85
2023-01-18T05:26:04.610Z,9.82
2023-01-18T05:28:31.822Z,11.77
2023-01-18T05:30:58.936Z,11.45
2023-01-18T05:33:32.323Z,5.90
2023-01-18T05:35:59.562Z,11.32
2023-01-18T05:38:33.358Z,13.63
2023-01-18T05:41:00.624Z,9.88
2023-01-18T05:43:28.462Z,18.05
2023-01-18T05:46:02.300Z,13.02
2023-01-18T05:48:30.082Z,17.33
2023-01-18T05:51:04.384Z,10.35
2023-01-18T05:53:31.616Z,8.75
2023-01-18T05:55:59.456Z,5.03
2023-01-18T05:58:33.248Z,7.38
2023-01-18T06:01:00.512Z,5.28
2023-01-18T06:03:27.648Z,11.45
2023-01-18T06:06:01.257Z,9.15
2023-01-18T06:08:28.519Z,7.18
2023-01-18T06:11:03.254Z,11.60
2023-01-18T06:13:31.238Z,8.77
2023-01-18T06:15:59.023Z,12.93
2023-01-18T06:18:34.395Z,7.25
2023-01-18T06:21:02.600Z,13.48
2023-01-18T06:23:37.380Z,10.15
2023-01-18T06:26:04.680Z,10.35
2023-01-18T06:28:31.859Z,4.55
2023-01-18T06:31:05.260Z,8.00
2023-01-18T06:33:32.607Z,8.70
2023-01-18T06:36:08.462Z,9.05
2023-01-18T06:38:35.726Z,11.60
2023-01-18T06:41:02.835Z,8.10
2023-01-18T06:43:36.250Z,6.75
2023-01-18T06:46:04.801Z,8.00
2023-01-18T06:48:38.314Z,14.00
2023-01-18T06:51:05.660Z,6.55
2023-01-18T06:53:32.837Z,7.28
2023-01-18T06:56:08.348Z,9.15
2023-01-18T06:58:35.504Z,4.95
2023-01-18T07:01:09.504Z,6.50
2023-01-18T07:03:36.732Z,7.68
2023-01-18T07:06:04.655Z,7.78
2023-01-18T07:08:38.265Z,8.40
2023-01-18T07:11:06.547Z,4.82
2023-01-18T07:13:40.360Z,3.97
2023-01-18T07:16:08.756Z,9.77
2023-01-18T07:18:51.305Z,9.05
2023-01-18T07:21:19.608Z,8.43
2023-01-18T07:23:46.757Z,6.38
2023-01-18T07:26:23.241Z,5.07
2023-01-18T07:28:50.579Z,4.50
2023-01-18T07:31:25.293Z,2.63
2023-01-18T07:33:52.479Z,6.13
2023-01-18T07:36:20.490Z,4.97
2023-01-18T07:38:55.292Z,5.88
2023-01-18T07:41:23.215Z,5.32
2023-01-18T07:43:57.433Z,5.03
2023-01-18T07:46:26.055Z,5.88
2023-01-18T07:48:53.369Z,4.32
2023-01-18T07:51:30.387Z,8.55
2023-01-18T07:53:57.976Z,2.83
2023-01-18T07:59:00.255Z,2.05
2023-01-18T08:01:27.525Z,0.68
2023-01-18T08:04:01.271Z,4.05
2023-01-18T08:06:28.717Z,2.80
2023-01-18T08:09:03.403Z,2.70
2023-01-18T08:11:31.497Z,1.15
2023-01-18T08:13:58.749Z,0.52
2023-01-18T08:16:33.294Z,1.65
2023-01-18T08:19:07.249Z,0.52
2023-01-18T08:21:41.294Z,2.53
2023-01-18T08:24:08.510Z,0.40
2023-01-18T08:26:35.691Z,0.52
2023-01-18T08:29:09.251Z,0.60
2023-01-18T08:31:36.373Z,0.30
2023-01-18T08:34:10.286Z,0.90
2023-01-18T08:36:37.419Z,0.50
2023-01-18T08:39:11.272Z,0.40
2023-01-18T08:41:38.416Z,2.30
2023-01-18T08:44:12.241Z,0.30
2023-01-18T08:46:40.152Z,1.00
2023-01-18T08:49:14.394Z,1.33
2023-01-18T08:51:41.568Z,0.70
2023-01-18T08:54:08.806Z,1.50
2023-01-18T08:56:42.359Z,0.35
2023-01-18T08:59:10.026Z,0.55
2023-01-18T09:01:43.594Z,2.28
2023-01-18T09:04:10.775Z,1.45
2023-01-18T09:06:37.870Z,0.25
2023-01-18T09:09:12.400Z,0.28
2023-01-18T09:11:39.647Z,0.40
2023-01-18T09:14:13.415Z,0.80
2023-01-18T09:16:40.757Z,0.43
2023-01-18T09:19:21.255Z,1.17
2023-01-18T09:21:56.331Z,0.30
2023-01-18T09:24:23.706Z,0.13
2023-01-18T09:26:51.587Z,0.60
2023-01-18T09:29:25.290Z,0.20
2023-01-18T09:31:53.938Z,1.17
2023-01-18T09:34:28.368Z,0.30
2023-01-18T09:36:55.445Z,0.20
2023-01-18T09:39:30.708Z,0.40
2023-01-18T09:42:01.928Z,0.30
2023-01-18T09:44:37.271Z,0.68
2023-01-18T09:47:12.513Z,0.28
2023-01-18T09:50:06.456Z,0.68
2023-01-18T09:52:33.529Z,0.57
2023-01-18T09:55:07.361Z,0.60
2023-01-18T09:58:00.799Z,2.95
2023-01-18T10:00:36.422Z,1.02
2023-01-18T10:03:08.098Z,1.38
2023-01-18T10:05:43.355Z,1.05
2023-01-18T10:08:24.103Z,0.63
2023-01-18T10:11:01.299Z,2.88
2023-01-18T10:13:38.126Z,2.07
2023-01-18T10:16:17.626Z,3.50
2023-01-18T10:18:55.626Z,1.45
2023-01-18T10:21:49.314Z,4.97
2023-01-18T10:24:29.060Z,3.15
2023-01-18T10:27:08.533Z,17.33
2023-01-18T10:29:54.539Z,4.82
2023-01-18T10:32:30.519Z,3.83
2023-01-18T10:34:58.278Z,7.13
2023-01-18T10:37:25.483Z,1.55
2023-01-18T10:40:04.276Z,1.45
2023-01-18T10:42:34.581Z,0.85
2023-01-18T10:45:08.262Z,0.98
2023-01-18T10:47:35.514Z,3.10
2023-01-18T10:50:19.364Z,5.10
2023-01-18T10:52:46.514Z,0.60
2023-01-18T10:55:24.279Z,3.95
2023-01-18T10:57:53.475Z,8.23
2023-01-18T11:00:28.364Z,9.23
2023-01-18T11:02:56.445Z,12.10
2023-01-18T11:05:45.550Z,11.73
2023-01-18T11:08:26.017Z,8.32
2023-01-18T11:11:09.329Z,9.95
2023-01-18T11:13:43.990Z,13.50
2023-01-18T11:16:24.354Z,16.50
2023-01-18T11:19:07.103Z,19.83
2023-01-18T11:22:01.345Z,18.13
2023-01-18T11:24:32.183Z,27.30
2023-01-18T11:27:10.305Z,17.05
2023-01-18T11:32:20.410Z,14.55
2023-01-18T11:34:50.567Z,10.35
2023-01-18T11:37:41.538Z,12.15
2023-01-18T11:40:22.153Z,18.38
2023-01-18T11:42:58.318Z,10.05
2023-01-18T11:45:28.450Z,15.02
2023-01-18T11:48:17.426Z,11.07
2023-01-18T11:50:49.804Z,13.15
2023-01-18T11:53:16.987Z,5.18
2023-01-18T11:56:02.395Z,8.45
2023-01-18T11:58:30.696Z,13.57
2023-01-18T12:01:28.595Z,14.80
2023-01-18T12:04:14.246Z,7.10
2023-01-18T12:07:10.469Z,14.75
2023-01-18T12:09:54.759Z,9.13
2023-01-18T12:12:48.338Z,12.90
2023-01-18T12:15:34.298Z,8.05
2023-01-18T12:18:29.296Z,14.48
2023-01-18T12:21:03.296Z,5.78
2023-01-18T12:23:47.429Z,13.70
2023-01-18T12:26:33.437Z,8.52
2023-01-18T12:29:07.321Z,10.88
2023-01-18T12:31:43.651Z,11.30
2023-01-18T12:34:27.332Z,15.52
2023-01-18T12:36:57.862Z,8.75
2023-01-18T12:40:00.312Z,9.60
2023-01-18T12:42:27.404Z,8.60
2023-01-18T12:45:08.393Z,10.95
2023-01-18T12:47:35.616Z,6.35
2023-01-18T12:50:20.613Z,11.77
2023-01-18T12:53:01.053Z,15.02
2023-01-18T12:55:38.324Z,13.73
2023-01-18T12:58:05.985Z,9.43
2023-01-18T13:00:45.356Z,13.75
2023-01-18T13:03:14.325Z,13.32
2023-01-18T13:06:08.341Z,8.75
2023-01-18T13:08:44.577Z,13.63
2023-01-18T13:11:24.417Z,10.27
2023-01-18T13:14:09.374Z,10.68
2023-01-18T13:16:43.593Z,8.77
2023-01-18T13:19:24.959Z,13.25
2023-01-18T13:22:11.387Z,11.60
2023-01-18T13:24:53.590Z,12.98
2023-01-18T13:27:27.391Z,11.80
2023-01-18T13:29:54.627Z,18.92
2023-01-18T13:32:30.357Z,14.73
2023-01-18T13:35:18.016Z,10.30
2023-01-18T13:37:57.799Z,26.00
2023-01-18T13:40:25.377Z,14.10
2023-01-18T13:42:59.335Z,24.27
2023-01-18T13:45:28.089Z,24.40
2023-01-18T13:48:03.620Z,20.52
2023-01-18T13:50:38.282Z,25.63
2023-01-18T13:53:21.387Z,22.25
2023-01-18T13:55:52.995Z,19.85
2023-01-18T13:58:20.183Z,18.60
2023-01-18T14:00:55.349Z,15.90
2023-01-18T14:03:25.427Z,25.83
2023-01-18T14:05:59.345Z,22.70
2023-01-18T14:08:32.538Z,22.52
2023-01-18T14:11:10.365Z,22.35
2023-01-18T14:13:46.507Z,26.50
2023-01-18T14:16:28.388Z,36.55
2023-01-18T14:19:11.341Z,26.70
2023-01-18T14:22:17.447Z,22.48
2023-01-18T14:24:51.100Z,26.88
2023-01-18T14:27:27.532Z,30.23
2023-01-18T14:30:04.277Z,27.98
2023-01-18T14:32:36.270Z,19.17
2023-01-18T14:35:11.400Z,50.35
2023-01-18T14:37:38.632Z,38.50
2023-01-18T14:40:08.805Z,37.67
2023-01-18T14:42:45.405Z,29.45
2023-01-18T14:45:30.275Z,24.48
2023-01-18T14:48:08.354Z,29.70
2023-01-18T14:50:44.266Z,35.00
2023-01-18T14:53:15.495Z,25.60
2023-01-18T14:55:49.275Z,27.27
2023-01-18T14:58:18.035Z,27.20
2023-01-18T15:00:56.355Z,30.55
2023-01-18T15:03:26.412Z,30.35
2023-01-18T15:06:20.320Z,22.25
2023-01-18T15:08:49.391Z,22.00
2023-01-18T15:11:23.269Z,27.33
2023-01-18T15:13:51.495Z,25.58
2023-01-18T15:16:26.338Z,19.40
2023-01-18T15:19:02.041Z,33.35
2023-01-18T15:21:42.280Z,32.35
2023-01-18T15:24:10.629Z,34.60
2023-01-18T15:26:51.342Z,20.35
2023-01-18T15:29:19.603Z,23.73
2023-01-18T15:31:58.304Z,18.63
2023-01-18T15:34:36.553Z,22.10
2023-01-18T15:39:48.375Z,31.08
2023-01-18T15:42:23.284Z,24.10
2023-01-18T15:44:59.448Z,27.65
2023-01-18T15:47:37.291Z,17.95
2023-01-18T15:50:13.335Z,19.70
2023-01-18T15:52:44.782Z,43.47
2023-01-18T15:55:27.356Z,30.77
2023-01-18T15:58:05.634Z,26.67
2023-01-18T16:00:44.562Z,30.70
2023-01-18T16:03:20.582Z,31.83
2023-01-18T16:06:03.421Z,37.38
2023-01-18T16:08:37.282Z,22.35
2023-01-18T16:11:11.455Z,32.55
2023-01-18T16:13:40.065Z,33.05
2023-01-18T16:16:22.384Z,29.08
2023-01-18T16:19:03.300Z,32.97
2023-01-18T16:21:34.315Z,24.73
2023-01-18T16:24:08.280Z,23.95
2023-01-18T16:26:35.663Z,18.05
2023-01-18T16:29:14.435Z,37.65
2023-01-18T16:31:43.098Z,21.35
2023-01-18T16:34:35.297Z,29.48
2023-01-18T16:37:09.510Z,51.20
2023-01-18T16:39:40.286Z,41.28
2023-01-18T16:42:07.752Z,42.67
2023-01-18T16:44:42.373Z,34.92
2023-01-18T16:47:16.614Z,30.20
2023-01-18T16:49:50.481Z,42.40
2023-01-18T16:52:17.702Z,33.88
2023-01-18T16:54:45.924Z,60.30
2023-01-18T16:57:22.513Z,28.92
2023-01-18T16:59:49.990Z,36.83
2023-01-18T17:02:23.511Z,27.20
2023-01-18T17:04:50.828Z,27.35
2023-01-18T17:07:24.496Z,34.78
2023-01-18T17:09:53.355Z,35.10
2023-01-18T17:12:20.602Z,31.40
2023-01-18T17:14:54.387Z,41.88
2023-01-18T17:17:21.589Z,28.33
2023-01-18T17:20:08.519Z,31.83
2023-01-18T17:22:35.691Z,40.83
2023-01-18T17:25:02.785Z,27.45
2023-01-18T17:27:37.367Z,48.05
2023-01-18T17:30:04.691Z,45.55
2023-01-18T17:32:38.416Z,24.27
2023-01-18T17:35:06.373Z,37.97
2023-01-18T17:37:35.406Z,33.90
2023-01-18T17:40:17.042Z,44.67
2023-01-18T17:42:51.707Z,37.85
2023-01-18T17:45:25.688Z,39.88
2023-01-18T17:47:53.741Z,28.48
2023-01-18T17:50:24.949Z,29.67
2023-01-18T17:52:59.773Z,35.20
2023-01-18T17:55:34.094Z,48.17
2023-01-18T17:58:08.537Z,23.60
2023-01-18T18:00:35.990Z,30.88
2023-01-18T18:05:37.488Z,25.80
2023-01-18T18:08:04.720Z,46.30
2023-01-18T18:10:38.396Z,64.97
2023-01-18T18:13:05.604Z,65.30
2023-01-18T18:15:39.501Z,37.47
2023-01-18T18:18:26.310Z,33.50
2023-01-18T18:21:06.556Z,26.98
2023-01-18T18:23:34.070Z,32.38
2023-01-18T18:28:36.385Z,43.35
2023-01-18T18:31:03.811Z,29.77
2023-01-18T18:33:37.377Z,27.98
2023-01-18T18:36:04.651Z,41.50
2023-01-18T18:38:38.596Z,39.55
2023-01-18T18:41:06.971Z,38.60
2023-01-18T18:43:34.156Z,27.95
2023-01-18T18:46:08.480Z,34.75
2023-01-18T18:48:35.727Z,36.08
2023-01-18T18:51:10.516Z,26.98
2023-01-18T18:53:39.857Z,28.40
2023-01-18T18:56:10.047Z,31.40
2023-01-18T18:58:44.558Z,33.33
2023-01-18T19:01:20.039Z,25.60
2023-01-18T19:03:54.401Z,27.40
2023-01-18T19:06:29.469Z,21.58
2023-01-18T19:08:57.432Z,27.17
2023-01-18T19:11:24.700Z,33.42
2023-01-18T19:13:58.438Z,23.73
2023-01-18T19:16:25.819Z,27.02
2023-01-18T19:19:05.412Z,37.90
2023-01-18T19:21:32.812Z,27.27
2023-01-18T19:23:59.929Z,17.35
2023-01-18T19:26:33.471Z,30.85
2023-01-18T19:29:00.720Z,33.33
2023-01-18T19:31:34.620Z,22.02
2023-01-18T19:34:01.886Z,25.67
2023-01-18T19:36:29.017Z,20.42
2023-01-18T19:39:03.481Z,24.20
2023-01-18T19:41:32.572Z,25.85
2023-01-18T19:44:06.516Z,28.58
2023-01-18T19:46:34.422Z,26.05
2023-01-18T19:49:03.189Z,22.35
2023-01-18T19:51:37.400Z,35.25
2023-01-18T19:54:04.923Z,32.47
2023-01-18T19:59:05.839Z,27.83
2023-01-18T20:01:36.775Z,29.75
2023-01-18T20:04:12.538Z,23.08
2023-01-18T20:06:40.061Z,167.48
2023-01-18T20:11:52.405Z,27.90
2023-01-18T20:14:19.663Z,30.90
2023-01-18T20:16:53.558Z,29.27
2023-01-18T20:19:27.685Z,29.83
2023-01-18T20:22:07.397Z,20.58
2023-01-18T20:24:56.484Z,23.20
2023-01-18T20:27:37.409Z,27.65
2023-01-18T20:30:12.343Z,20.52
2023-01-18T20:32:46.557Z,29.33
2023-01-18T20:35:13.651Z,30.63
2023-01-18T20:37:41.287Z,51.53
2023-01-18T20:40:15.589Z,36.10
2023-01-18T20:42:43.239Z,35.70
2023-01-18T20:45:10.530Z,24.08
2023-01-18T20:47:51.476Z,36.42
2023-01-18T20:50:18.929Z,28.33
2023-01-18T20:55:19.732Z,16.80
2023-01-18T20:57:46.973Z,18.52
2023-01-18T21:00:21.448Z,31.70
2023-01-18T21:02:49.312Z,27.77
2023-01-18T21:05:23.463Z,22.40
2023-01-18T21:07:50.728Z,27.73
2023-01-18T21:10:17.898Z,28.15
2023-01-18T21:12:51.484Z,23.77
2023-01-18T21:15:18.717Z,35.58
2023-01-18T21:17:52.464Z,40.63
2023-01-18T21:20:30.037Z,26.58
2023-01-18T21:23:04.428Z,31.02
2023-01-18T21:25:31.638Z,35.83
2023-01-18T21:27:59.086Z,36.42
2023-01-18T21:30:33.484Z,28.58
2023-01-18T21:33:00.632Z,45.10
2023-01-18T21:35:36.550Z,36.20
2023-01-18T21:38:04.795Z,35.92
2023-01-18T21:40:31.911Z,40.47
2023-01-18T21:43:24.474Z,33.67
2023-01-18T21:45:57.109Z,35.70
2023-01-18T21:48:31.431Z,35.75
2023-01-18T21:51:28.498Z,37.17
2023-01-18T21:54:20.660Z,50.15
2023-01-18T21:56:47.946Z,32.17
2023-01-18T21:59:15.094Z,31.42
2023-01-18T22:01:50.770Z,24.55
2023-01-18T22:04:36.735Z,27.75
2023-01-18T22:07:10.480Z,30.85
2023-01-18T22:09:39.227Z,29.05
2023-01-18T22:12:06.557Z,26.13
2023-01-18T22:14:40.427Z,24.10
2023-01-18T22:17:08.589Z,23.08
2023-01-18T22:19:50.552Z,21.88
2023-01-18T22:22:24.431Z,32.90
2023-01-18T22:24:58.478Z,31.42
2023-01-18T22:27:25.652Z,20.65
2023-01-18T22:29:52.740Z,18.50
2023-01-18T22:32:26.475Z,18.08
2023-01-18T22:34:53.680Z,22.42
2023-01-18T22:37:20.850Z,12.10
2023-01-18T22:39:54.510Z,24.50
2023-01-18T22:42:21.804Z,25.10
2023-01-18T22:44:55.642Z,16.60
2023-01-18T22:47:22.788Z,17.25
2023-01-18T22:49:49.921Z,25.75
2023-01-18T22:52:23.471Z,14.20
2023-01-18T22:54:50.812Z,14.70
2023-01-18T22:57:24.459Z,23.02
2023-01-18T22:59:51.608Z,20.10
2023-01-18T23:02:18.804Z,14.73
2023-01-18T23:04:54.526Z,21.67
2023-01-18T23:07:21.873Z,26.30
2023-01-18T23:09:55.491Z,18.38
2023-01-18T23:12:22.678Z,14.90
2023-01-18T23:15:14.481Z,20.67
2023-01-18T23:17:43.208Z,30.00
2023-01-18T23:20:30.476Z,24.02
2023-01-18T23:23:04.385Z,20.70
2023-01-18T23:25:41.448Z,24.25
2023-01-18T23:28:15.385Z,28.03
2023-01-18T23:30:49.622Z,26.52
2023-01-18T23:33:16.899Z,19.85
2023-01-18T23:35:44.002Z,23.45
2023-01-18T23:38:17.459Z,20.25
2023-01-18T23:41:03.159Z,33.30
2023-01-18T23:43:55.460Z,26.02
2023-01-18T23:46:55.400Z,18.77
2023-01-18T23:49:48.675Z,19.35
2023-01-18T23:52:41.399Z,21.85
2023-01-18T23:55:08.791Z,24.63
2023-01-18T23:57:36.661Z,22.83
